CheckWX is a tool to help pilots better visualize weather data.  It is not intended as a substitute for an official pre-flight weather briefing.

05:21:12 UTC

KALI METAR
Alice International Airport
Alice, Texas, USA
Current

28 mins ago

KALI 200453Z AUTO 34013KT 6SM BR OVC005 08/07 A2990 RMK AO2 CIG 004V010 SLP125 T00830072
Observed
Feb-20 @ 04:53 UTC
Wind
  • 340° at 13 KTS
Visibility
9,656 meters
Flight Rules
IFR
Conditions
Mist
Cloud Levels
  • Overcast at 500' AGL
Temperature
C / 46°F
Dewpoint
C / 45°F
Humidity
93%
Altimeter
29.9" Hg
Pressure
1012.5 hPa
Previous

1 hour ago

KALI 200409Z AUTO 33010KT 7SM BKN006 BKN012 OVC020 09/08 A2989 RMK AO2 CIG 004V009 T00890078
Observed
Feb-20 @ 04:09 UTC
Wind
  • 330° at 10 KTS
Visibility
11,265 meters
Flight Rules
IFR
Cloud Levels
  • Broken at 600' AGL
  • Broken at 1,200' AGL
  • Overcast at 2,000' AGL
Temperature
C / 48°F
Dewpoint
C / 46°F
Humidity
94%
Altimeter
29.89" Hg
Pressure
1012.22 hPa
Previous

1 hour ago

KALI 200353Z AUTO 03008KT 9SM FEW006 BKN011 OVC020 09/08 A2987 RMK AO2 SLP115 T00890078
Observed
Feb-20 @ 03:53 UTC
Wind
  • 030° at 8 KTS
Visibility
14,484 meters
Flight Rules
MVFR
Cloud Levels
  • Few at 600' AGL
  • Broken at 1,100' AGL
  • Overcast at 2,000' AGL
Temperature
C / 48°F
Dewpoint
C / 46°F
Humidity
94%
Altimeter
29.87" Hg
Pressure
1011.5 hPa